sensor_id;sensor_type;location;lat;lon;timestamp;temperature;humidity
31575;DHT22;18182;1.328;103.810;2022-11-15T00:01:54;28.00;99.90
31575;DHT22;18182;1.328;103.810;2022-11-15T00:04:20;28.00;99.90
31575;DHT22;18182;1.328;103.810;2022-11-15T00:06:46;28.00;99.90
31575;DHT22;18182;1.328;103.810;2022-11-15T00:09:13;28.00;99.90
31575;DHT22;18182;1.328;103.810;2022-11-15T00:11:39;28.00;99.90
31575;DHT22;18182;1.328;103.810;2022-11-15T00:14:06;28.20;99.90
31575;DHT22;18182;1.328;103.810;2022-11-15T00:16:32;28.20;99.90
31575;DHT22;18182;1.328;103.810;2022-11-15T00:18:58;28.30;99.90
31575;DHT22;18182;1.328;103.810;2022-11-15T00:21:24;28.40;99.90
31575;DHT22;18182;1.328;103.810;2022-11-15T00:23:50;28.40;99.90
31575;DHT22;18182;1.328;103.810;2022-11-15T00:26:16;28.40;99.90
31575;DHT22;18182;1.328;103.810;2022-11-15T00:28:43;28.40;99.90
31575;DHT22;18182;1.328;103.810;2022-11-15T00:31:11;28.40;99.90
31575;DHT22;18182;1.328;103.810;2022-11-15T00:33:37;28.40;99.90
31575;DHT22;18182;1.328;103.810;2022-11-15T00:36:04;28.30;99.90
31575;DHT22;18182;1.328;103.810;2022-11-15T00:38:34;28.20;99.90
31575;DHT22;18182;1.328;103.810;2022-11-15T00:41:01;28.20;99.90
31575;DHT22;18182;1.328;103.810;2022-11-15T00:43:27;28.20;99.90
31575;DHT22;18182;1.328;103.810;2022-11-15T00:45:53;28.20;99.90
31575;DHT22;18182;1.328;103.810;2022-11-15T00:48:20;28.20;99.90
31575;DHT22;18182;1.328;103.810;2022-11-15T00:50:46;28.20;99.90
31575;DHT22;18182;1.328;103.810;2022-11-15T00:53:12;28.30;99.90
31575;DHT22;18182;1.328;103.810;2022-11-15T00:55:38;28.30;99.90
31575;DHT22;18182;1.328;103.810;2022-11-15T00:58:04;28.40;99.90
31575;DHT22;18182;1.328;103.810;2022-11-15T01:00:30;28.40;99.90
31575;DHT22;18182;1.328;103.810;2022-11-15T01:02:57;28.40;99.90
31575;DHT22;18182;1.328;103.810;2022-11-15T01:05:23;28.50;99.90
31575;DHT22;18182;1.328;103.810;2022-11-15T01:07:52;28.50;99.90
31575;DHT22;18182;1.328;103.810;2022-11-15T01:10:19;28.50;99.90
31575;DHT22;18182;1.328;103.810;2022-11-15T01:12:45;28.50;99.90
31575;DHT22;18182;1.328;103.810;2022-11-15T01:15:12;28.60;99.90
31575;DHT22;18182;1.328;103.810;2022-11-15T01:17:38;28.60;99.90
31575;DHT22;18182;1.328;103.810;2022-11-15T01:20:04;28.60;99.90
31575;DHT22;18182;1.328;103.810;2022-11-15T01:22:30;28.70;99.90
31575;DHT22;18182;1.328;103.810;2022-11-15T01:24:56;28.70;99.90
31575;DHT22;18182;1.328;103.810;2022-11-15T01:27:22;28.70;99.90
31575;DHT22;18182;1.328;103.810;2022-11-15T01:29:48;28.70;99.90
31575;DHT22;18182;1.328;103.810;2022-11-15T01:32:15;28.70;99.90
31575;DHT22;18182;1.328;103.810;2022-11-15T01:34:41;28.80;99.90
31575;DHT22;18182;1.328;103.810;2022-11-15T01:37:07;28.80;99.90
31575;DHT22;18182;1.328;103.810;2022-11-15T01:39:33;28.80;99.90
31575;DHT22;18182;1.328;103.810;2022-11-15T01:41:59;28.80;99.90
31575;DHT22;18182;1.328;103.810;2022-11-15T01:44:34;28.80;99.90
31575;DHT22;18182;1.328;103.810;2022-11-15T01:47:14;28.80;99.90
31575;DHT22;18182;1.328;103.810;2022-11-15T01:49:52;28.80;99.90
31575;DHT22;18182;1.328;103.810;2022-11-15T01:52:20;28.90;99.90
31575;DHT22;18182;1.328;103.810;2022-11-15T01:54:53;28.90;99.90
31575;DHT22;18182;1.328;103.810;2022-11-15T01:57:20;29.00;99.90
31575;DHT22;18182;1.328;103.810;2022-11-15T01:59:46;29.00;99.90
31575;DHT22;18182;1.328;103.810;2022-11-15T02:02:12;29.00;99.90
31575;DHT22;18182;1.328;103.810;2022-11-15T02:04:43;29.10;99.90
31575;DHT22;18182;1.328;103.810;2022-11-15T02:07:10;29.10;99.90
31575;DHT22;18182;1.328;103.810;2022-11-15T02:09:37;29.10;99.90
31575;DHT22;18182;1.328;103.810;2022-11-15T02:12:04;29.20;99.90
31575;DHT22;18182;1.328;103.810;2022-11-15T02:14:31;29.30;99.90
31575;DHT22;18182;1.328;103.810;2022-11-15T02:17:03;29.30;99.90
31575;DHT22;18182;1.328;103.810;2022-11-15T02:43:00;30.30;99.90
31575;DHT22;18182;1.328;103.810;2022-11-15T02:45:50;30.40;99.90
31575;DHT22;18182;1.328;103.810;2022-11-15T02:48:17;30.50;99.90
31575;DHT22;18182;1.328;103.810;2022-11-15T02:50:44;30.80;99.90
31575;DHT22;18182;1.328;103.810;2022-11-15T02:53:11;31.00;99.90
31575;DHT22;18182;1.328;103.810;2022-11-15T02:55:38;31.10;99.90
31575;DHT22;18182;1.328;103.810;2022-11-15T02:58:19;31.20;99.90
31575;DHT22;18182;1.328;103.810;2022-11-15T03:00:59;31.20;99.90
31575;DHT22;18182;1.328;103.810;2022-11-15T03:18:57;31.40;99.90
31575;DHT22;18182;1.328;103.810;2022-11-15T03:21:25;31.40;99.90
31575;DHT22;18182;1.328;103.810;2022-11-15T03:23:54;31.60;99.90
31575;DHT22;18182;1.328;103.810;2022-11-15T03:26:21;31.60;99.90
31575;DHT22;18182;1.328;103.810;2022-11-15T03:28:53;31.60;99.90
31575;DHT22;18182;1.328;103.810;2022-11-15T03:31:21;31.50;99.90
31575;DHT22;18182;1.328;103.810;2022-11-15T03:34:07;31.40;99.90
31575;DHT22;18182;1.328;103.810;2022-11-15T03:36:34;31.40;99.90
31575;DHT22;18182;1.328;103.810;2022-11-15T03:39:01;31.40;99.90
31575;DHT22;18182;1.328;103.810;2022-11-15T03:41:29;31.50;99.90
31575;DHT22;18182;1.328;103.810;2022-11-15T03:44:00;31.60;99.90
31575;DHT22;18182;1.328;103.810;2022-11-15T03:46:33;31.60;99.90
31575;DHT22;18182;1.328;103.810;2022-11-15T03:49:10;31.60;99.90
31575;DHT22;18182;1.328;103.810;2022-11-15T03:51:38;31.70;99.90
31575;DHT22;18182;1.328;103.810;2022-11-15T03:54:04;31.80;99.90
31575;DHT22;18182;1.328;103.810;2022-11-15T03:56:31;31.70;99.90
31575;DHT22;18182;1.328;103.810;2022-11-15T03:58:57;31.70;99.90
31575;DHT22;18182;1.328;103.810;2022-11-15T04:01:23;31.60;99.90
31575;DHT22;18182;1.328;103.810;2022-11-15T04:03:49;31.60;99.90
31575;DHT22;18182;1.328;103.810;2022-11-15T04:06:15;31.60;99.90
31575;DHT22;18182;1.328;103.810;2022-11-15T04:08:41;31.60;99.90
31575;DHT22;18182;1.328;103.810;2022-11-15T04:11:07;31.50;99.90
31575;DHT22;18182;1.328;103.810;2022-11-15T04:13:33;31.50;99.90
31575;DHT22;18182;1.328;103.810;2022-11-15T04:16:00;31.60;99.90
31575;DHT22;18182;1.328;103.810;2022-11-15T04:18:26;31.60;99.90
31575;DHT22;18182;1.328;103.810;2022-11-15T04:20:52;31.70;99.90
31575;DHT22;18182;1.328;103.810;2022-11-15T04:23:37;31.70;99.90
31575;DHT22;18182;1.328;103.810;2022-11-15T04:26:21;31.70;99.90
31575;DHT22;18182;1.328;103.810;2022-11-15T04:28:48;31.70;99.90
31575;DHT22;18182;1.328;103.810;2022-11-15T04:31:32;31.70;99.90
31575;DHT22;18182;1.328;103.810;2022-11-15T04:33:58;31.70;99.90
31575;DHT22;18182;1.328;103.810;2022-11-15T04:36:24;31.70;99.90
31575;DHT22;18182;1.328;103.810;2022-11-15T04:39:09;31.80;99.90
31575;DHT22;18182;1.328;103.810;2022-11-15T04:41:35;32.10;99.90
31575;DHT22;18182;1.328;103.810;2022-11-15T04:44:01;32.10;99.90
31575;DHT22;18182;1.328;103.810;2022-11-15T04:46:27;32.20;99.90
31575;DHT22;18182;1.328;103.810;2022-11-15T04:48:54;32.30;99.90
31575;DHT22;18182;1.328;103.810;2022-11-15T04:51:20;32.40;99.90
31575;DHT22;18182;1.328;103.810;2022-11-15T04:53:46;32.40;99.90
31575;DHT22;18182;1.328;103.810;2022-11-15T04:56:12;32.30;99.90
31575;DHT22;18182;1.328;103.810;2022-11-15T04:58:38;32.30;99.90
31575;DHT22;18182;1.328;103.810;2022-11-15T05:01:08;32.20;99.90
31575;DHT22;18182;1.328;103.810;2022-11-15T05:03:34;32.10;99.90
31575;DHT22;18182;1.328;103.810;2022-11-15T05:06:19;32.10;99.90
31575;DHT22;18182;1.328;103.810;2022-11-15T05:08:45;32.20;99.90
31575;DHT22;18182;1.328;103.810;2022-11-15T05:11:11;32.20;99.90
31575;DHT22;18182;1.328;103.810;2022-11-15T05:13:37;32.30;99.90
31575;DHT22;18182;1.328;103.810;2022-11-15T05:16:03;32.40;99.90
31575;DHT22;18182;1.328;103.810;2022-11-15T05:18:30;32.40;99.90
31575;DHT22;18182;1.328;103.810;2022-11-15T05:21:02;32.40;99.90
31575;DHT22;18182;1.328;103.810;2022-11-15T05:23:28;32.40;99.90
31575;DHT22;18182;1.328;103.810;2022-11-15T05:25:58;32.50;99.90
31575;DHT22;18182;1.328;103.810;2022-11-15T05:28:24;32.60;99.90
31575;DHT22;18182;1.328;103.810;2022-11-15T05:30:50;32.70;99.90
31575;DHT22;18182;1.328;103.810;2022-11-15T05:33:16;32.80;99.70
31575;DHT22;18182;1.328;103.810;2022-11-15T05:35:46;33.00;99.40
31575;DHT22;18182;1.328;103.810;2022-11-15T05:38:14;33.00;98.90
31575;DHT22;18182;1.328;103.810;2022-11-15T05:40:41;32.90;99.00
31575;DHT22;18182;1.328;103.810;2022-11-15T05:43:07;32.80;99.20
31575;DHT22;18182;1.328;103.810;2022-11-15T05:45:33;32.70;99.40
31575;DHT22;18182;1.328;103.810;2022-11-15T05:48:00;32.60;99.30
31575;DHT22;18182;1.328;103.810;2022-11-15T05:50:27;32.60;99.60
31575;DHT22;18182;1.328;103.810;2022-11-15T05:52:53;32.70;99.40
31575;DHT22;18182;1.328;103.810;2022-11-15T05:55:20;32.50;99.10
31575;DHT22;18182;1.328;103.810;2022-11-15T05:57:46;32.50;99.10
31575;DHT22;18182;1.328;103.810;2022-11-15T06:00:12;32.50;98.90
31575;DHT22;18182;1.328;103.810;2022-11-15T06:02:39;32.60;99.00
31575;DHT22;18182;1.328;103.810;2022-11-15T06:05:05;32.60;98.70
31575;DHT22;18182;1.328;103.810;2022-11-15T06:07:31;32.50;98.70
31575;DHT22;18182;1.328;103.810;2022-11-15T06:09:57;32.50;98.70
31575;DHT22;18182;1.328;103.810;2022-11-15T06:12:23;32.30;98.70
31575;DHT22;18182;1.328;103.810;2022-11-15T06:14:49;32.30;98.80
31575;DHT22;18182;1.328;103.810;2022-11-15T06:17:15;32.30;98.70
31575;DHT22;18182;1.328;103.810;2022-11-15T06:19:41;32.20;98.70
31575;DHT22;18182;1.328;103.810;2022-11-15T06:22:08;32.30;98.90
31575;DHT22;18182;1.328;103.810;2022-11-15T06:24:35;32.30;99.10
31575;DHT22;18182;1.328;103.810;2022-11-15T06:27:01;32.30;99.40
31575;DHT22;18182;1.328;103.810;2022-11-15T06:29:27;32.30;99.70
31575;DHT22;18182;1.328;103.810;2022-11-15T06:31:53;32.30;99.90
31575;DHT22;18182;1.328;103.810;2022-11-15T06:34:19;32.30;99.90
31575;DHT22;18182;1.328;103.810;2022-11-15T06:36:45;32.30;99.90
31575;DHT22;18182;1.328;103.810;2022-11-15T06:39:11;32.10;99.90
31575;DHT22;18182;1.328;103.810;2022-11-15T06:41:37;32.10;99.70
31575;DHT22;18182;1.328;103.810;2022-11-15T06:44:03;32.10;99.50
31575;DHT22;18182;1.328;103.810;2022-11-15T06:46:30;32.00;99.40
31575;DHT22;18182;1.328;103.810;2022-11-15T06:48:56;32.00;99.40
31575;DHT22;18182;1.328;103.810;2022-11-15T06:51:22;31.90;99.50
31575;DHT22;18182;1.328;103.810;2022-11-15T06:53:48;31.90;99.80
31575;DHT22;18182;1.328;103.810;2022-11-15T06:56:14;31.90;99.90
31575;DHT22;18182;1.328;103.810;2022-11-15T06:58:40;31.80;99.90
31575;DHT22;18182;1.328;103.810;2022-11-15T07:01:07;31.80;99.90
31575;DHT22;18182;1.328;103.810;2022-11-15T07:03:34;31.80;99.90
31575;DHT22;18182;1.328;103.810;2022-11-15T07:06:01;31.70;99.90
31575;DHT22;18182;1.328;103.810;2022-11-15T07:08:28;31.70;99.90
31575;DHT22;18182;1.328;103.810;2022-11-15T07:10:58;31.70;99.90
31575;DHT22;18182;1.328;103.810;2022-11-15T07:13:25;31.60;99.90
31575;DHT22;18182;1.328;103.810;2022-11-15T07:15:52;31.60;99.90
31575;DHT22;18182;1.328;103.810;2022-11-15T07:18:18;31.60;99.90
31575;DHT22;18182;1.328;103.810;2022-11-15T07:20:44;31.60;99.90
31575;DHT22;18182;1.328;103.810;2022-11-15T07:23:11;31.60;99.90
31575;DHT22;18182;1.328;103.810;2022-11-15T07:25:37;31.60;99.90
31575;DHT22;18182;1.328;103.810;2022-11-15T07:28:03;31.60;99.90
31575;DHT22;18182;1.328;103.810;2022-11-15T07:30:29;31.60;99.90
31575;DHT22;18182;1.328;103.810;2022-11-15T07:32:59;31.60;99.90
31575;DHT22;18182;1.328;103.810;2022-11-15T07:35:26;31.70;99.90
31575;DHT22;18182;1.328;103.810;2022-11-15T07:37:59;31.70;99.60
31575;DHT22;18182;1.328;103.810;2022-11-15T07:40:26;31.70;99.70
31575;DHT22;18182;1.328;103.810;2022-11-15T07:42:58;31.70;99.70
31575;DHT22;18182;1.328;103.810;2022-11-15T07:45:24;31.70;99.70
31575;DHT22;18182;1.328;103.810;2022-11-15T07:47:53;31.70;99.60
31575;DHT22;18182;1.328;103.810;2022-11-15T07:50:21;31.70;99.70
31575;DHT22;18182;1.328;103.810;2022-11-15T07:52:51;31.80;99.90
31575;DHT22;18182;1.328;103.810;2022-11-15T07:55:18;31.80;99.90
31575;DHT22;18182;1.328;103.810;2022-11-15T07:57:44;31.80;99.90
31575;DHT22;18182;1.328;103.810;2022-11-15T08:00:11;31.70;99.90
31575;DHT22;18182;1.328;103.810;2022-11-15T08:02:37;31.70;99.70
31575;DHT22;18182;1.328;103.810;2022-11-15T08:05:03;31.70;99.80
31575;DHT22;18182;1.328;103.810;2022-11-15T08:07:30;31.70;99.90
31575;DHT22;18182;1.328;103.810;2022-11-15T08:09:56;31.80;99.90
31575;DHT22;18182;1.328;103.810;2022-11-15T08:12:22;31.80;99.90
31575;DHT22;18182;1.328;103.810;2022-11-15T08:14:49;31.90;99.90
31575;DHT22;18182;1.328;103.810;2022-11-15T08:17:15;31.90;99.90
31575;DHT22;18182;1.328;103.810;2022-11-15T08:19:41;31.90;99.90
31575;DHT22;18182;1.328;103.810;2022-11-15T08:22:07;31.90;99.90
31575;DHT22;18182;1.328;103.810;2022-11-15T08:24:34;31.90;99.80
31575;DHT22;18182;1.328;103.810;2022-11-15T08:27:00;32.00;99.80
31575;DHT22;18182;1.328;103.810;2022-11-15T08:29:26;31.90;99.60
31575;DHT22;18182;1.328;103.810;2022-11-15T08:31:54;31.90;99.70
31575;DHT22;18182;1.328;103.810;2022-11-15T08:34:20;31.70;99.80
31575;DHT22;18182;1.328;103.810;2022-11-15T08:36:46;31.60;99.90
31575;DHT22;18182;1.328;103.810;2022-11-15T08:39:12;31.60;99.90
31575;DHT22;18182;1.328;103.810;2022-11-15T08:41:38;31.50;99.90
31575;DHT22;18182;1.328;103.810;2022-11-15T08:44:05;31.50;99.90
31575;DHT22;18182;1.328;103.810;2022-11-15T08:46:31;31.50;99.90
31575;DHT22;18182;1.328;103.810;2022-11-15T08:48:57;31.50;99.90
31575;DHT22;18182;1.328;103.810;2022-11-15T08:51:23;31.50;99.90
31575;DHT22;18182;1.328;103.810;2022-11-15T08:53:49;31.40;99.90
31575;DHT22;18182;1.328;103.810;2022-11-15T08:56:15;31.40;99.90
31575;DHT22;18182;1.328;103.810;2022-11-15T08:58:41;31.40;99.90
31575;DHT22;18182;1.328;103.810;2022-11-15T09:01:14;31.40;99.90
31575;DHT22;18182;1.328;103.810;2022-11-15T09:03:40;31.40;99.90
31575;DHT22;18182;1.328;103.810;2022-11-15T09:06:07;31.30;99.90
31575;DHT22;18182;1.328;103.810;2022-11-15T09:08:33;31.20;99.90
31575;DHT22;18182;1.328;103.810;2022-11-15T09:11:02;31.20;99.90
31575;DHT22;18182;1.328;103.810;2022-11-15T09:13:28;31.20;99.90
31575;DHT22;18182;1.328;103.810;2022-11-15T09:15:57;31.10;99.90
31575;DHT22;18182;1.328;103.810;2022-11-15T09:18:23;31.10;99.90
31575;DHT22;18182;1.328;103.810;2022-11-15T09:20:49;31.10;99.90
31575;DHT22;18182;1.328;103.810;2022-11-15T09:23:15;31.00;99.90
31575;DHT22;18182;1.328;103.810;2022-11-15T09:25:42;30.90;99.90
31575;DHT22;18182;1.328;103.810;2022-11-15T09:28:08;30.90;99.90
31575;DHT22;18182;1.328;103.810;2022-11-15T09:30:34;30.90;99.90
31575;DHT22;18182;1.328;103.810;2022-11-15T09:33:10;30.90;99.90
31575;DHT22;18182;1.328;103.810;2022-11-15T09:35:36;30.80;99.90
31575;DHT22;18182;1.328;103.810;2022-11-15T09:38:03;30.80;99.90
31575;DHT22;18182;1.328;103.810;2022-11-15T09:40:29;30.80;99.90
31575;DHT22;18182;1.328;103.810;2022-11-15T09:43:05;30.80;99.90
31575;DHT22;18182;1.328;103.810;2022-11-15T09:50:48;30.60;99.90
31575;DHT22;18182;1.328;103.810;2022-11-15T09:53:22;30.60;99.90
31575;DHT22;18182;1.328;103.810;2022-11-15T10:01:02;30.50;99.90
31575;DHT22;18182;1.328;103.810;2022-11-15T10:03:34;30.50;99.90
31575;DHT22;18182;1.328;103.810;2022-11-15T10:06:01;30.50;99.90
31575;DHT22;18182;1.328;103.810;2022-11-15T10:08:37;30.50;99.90
31575;DHT22;18182;1.328;103.810;2022-11-15T10:11:08;30.40;99.90
31575;DHT22;18182;1.328;103.810;2022-11-15T10:13:36;30.50;99.90
31575;DHT22;18182;1.328;103.810;2022-11-15T10:21:29;30.40;99.90
31575;DHT22;18182;1.328;103.810;2022-11-15T10:23:58;30.40;99.90
31575;DHT22;18182;1.328;103.810;2022-11-15T10:26:24;30.40;99.90
31575;DHT22;18182;1.328;103.810;2022-11-15T10:28:51;30.30;99.90
31575;DHT22;18182;1.328;103.810;2022-11-15T10:31:21;30.30;99.90
31575;DHT22;18182;1.328;103.810;2022-11-15T10:33:48;30.30;99.90
31575;DHT22;18182;1.328;103.810;2022-11-15T10:36:18;30.30;99.90
31575;DHT22;18182;1.328;103.810;2022-11-15T10:41:17;30.20;99.90
31575;DHT22;18182;1.328;103.810;2022-11-15T10:43:44;30.20;99.90
31575;DHT22;18182;1.328;103.810;2022-11-15T10:46:22;30.10;99.90
31575;DHT22;18182;1.328;103.810;2022-11-15T10:48:49;30.10;99.90
31575;DHT22;18182;1.328;103.810;2022-11-15T10:51:23;30.10;99.90
31575;DHT22;18182;1.328;103.810;2022-11-15T10:53:57;30.10;99.90
31575;DHT22;18182;1.328;103.810;2022-11-15T10:56:25;30.10;99.90
31575;DHT22;18182;1.328;103.810;2022-11-15T10:58:53;30.10;99.90
31575;DHT22;18182;1.328;103.810;2022-11-15T11:01:21;30.10;99.90
31575;DHT22;18182;1.328;103.810;2022-11-15T11:06:48;30.00;99.90
31575;DHT22;18182;1.328;103.810;2022-11-15T11:09:37;30.10;99.90
31575;DHT22;18182;1.328;103.810;2022-11-15T11:12:04;30.00;99.90
31575;DHT22;18182;1.328;103.810;2022-11-15T11:14:31;30.00;99.90
31575;DHT22;18182;1.328;103.810;2022-11-15T11:19:43;30.00;99.90
31575;DHT22;18182;1.328;103.810;2022-11-15T11:25:02;29.90;99.90
31575;DHT22;18182;1.328;103.810;2022-11-15T11:30:06;29.90;99.90
31575;DHT22;18182;1.328;103.810;2022-11-15T11:32:40;29.90;99.90
31575;DHT22;18182;1.328;103.810;2022-11-15T11:38:24;29.90;99.90
31575;DHT22;18182;1.328;103.810;2022-11-15T11:43:24;29.90;99.90
31575;DHT22;18182;1.328;103.810;2022-11-15T11:50:56;29.80;99.90
31575;DHT22;18182;1.328;103.810;2022-11-15T11:53:29;29.90;99.90
31575;DHT22;18182;1.328;103.810;2022-11-15T11:56:02;29.80;99.90
31575;DHT22;18182;1.328;103.810;2022-11-15T11:58:38;29.80;99.90
31575;DHT22;18182;1.328;103.810;2022-11-15T12:03:38;29.80;99.90
31575;DHT22;18182;1.328;103.810;2022-11-15T12:08:53;29.80;99.90
31575;DHT22;18182;1.328;103.810;2022-11-15T12:13:50;29.70;99.90
31575;DHT22;18182;1.328;103.810;2022-11-15T12:16:18;29.70;99.90
31575;DHT22;18182;1.328;103.810;2022-11-15T12:18:48;29.80;99.90
31575;DHT22;18182;1.328;103.810;2022-11-15T12:21:16;29.70;99.90
31575;DHT22;18182;1.328;103.810;2022-11-15T12:23:49;29.70;99.90
31575;DHT22;18182;1.328;103.810;2022-11-15T12:26:19;29.80;99.90
31575;DHT22;18182;1.328;103.810;2022-11-15T12:28:48;29.80;99.90
31575;DHT22;18182;1.328;103.810;2022-11-15T12:31:17;29.80;99.90
31575;DHT22;18182;1.328;103.810;2022-11-15T12:33:48;29.80;99.90
31575;DHT22;18182;1.328;103.810;2022-11-15T12:41:35;29.70;99.90
31575;DHT22;18182;1.328;103.810;2022-11-15T12:44:02;29.70;99.90
31575;DHT22;18182;1.328;103.810;2022-11-15T12:49:02;29.70;99.90
31575;DHT22;18182;1.328;103.810;2022-11-15T12:54:54;29.70;99.90
31575;DHT22;18182;1.328;103.810;2022-11-15T13:02:19;29.70;99.90
31575;DHT22;18182;1.328;103.810;2022-11-15T13:04:46;29.60;99.90
31575;DHT22;18182;1.328;103.810;2022-11-15T13:09:57;29.70;99.90
31575;DHT22;18182;1.328;103.810;2022-11-15T13:19:58;29.60;99.90
31575;DHT22;18182;1.328;103.810;2022-11-15T13:22:37;29.70;99.90
31575;DHT22;18182;1.328;103.810;2022-11-15T13:25:18;29.70;99.90
31575;DHT22;18182;1.328;103.810;2022-11-15T13:27:47;29.70;99.90
31575;DHT22;18182;1.328;103.810;2022-11-15T13:30:18;29.70;99.90
31575;DHT22;18182;1.328;103.810;2022-11-15T13:32:44;29.70;99.90
31575;DHT22;18182;1.328;103.810;2022-11-15T13:35:18;29.70;99.90
31575;DHT22;18182;1.328;103.810;2022-11-15T13:37:44;29.60;99.90
31575;DHT22;18182;1.328;103.810;2022-11-15T13:40:20;29.60;99.90
31575;DHT22;18182;1.328;103.810;2022-11-15T13:42:47;29.60;99.90
31575;DHT22;18182;1.328;103.810;2022-11-15T13:45:14;29.60;99.90
31575;DHT22;18182;1.328;103.810;2022-11-15T13:47:41;29.60;99.90
31575;DHT22;18182;1.328;103.810;2022-11-15T13:50:10;29.60;99.90
31575;DHT22;18182;1.328;103.810;2022-11-15T13:52:37;29.60;99.90
31575;DHT22;18182;1.328;103.810;2022-11-15T13:55:08;29.60;99.90
31575;DHT22;18182;1.328;103.810;2022-11-15T14:00:32;29.50;99.90
31575;DHT22;18182;1.328;103.810;2022-11-15T14:02:55;29.50;99.90
31575;DHT22;18182;1.328;103.810;2022-11-15T14:05:23;29.50;99.90
31575;DHT22;18182;1.328;103.810;2022-11-15T14:07:57;29.50;99.90
31575;DHT22;18182;1.328;103.810;2022-11-15T14:10:36;29.50;99.90
31575;DHT22;18182;1.328;103.810;2022-11-15T14:13:03;29.50;99.90
31575;DHT22;18182;1.328;103.810;2022-11-15T14:15:36;29.50;99.90
31575;DHT22;18182;1.328;103.810;2022-11-15T14:18:03;29.50;99.90
31575;DHT22;18182;1.328;103.810;2022-11-15T14:20:31;29.50;99.90
31575;DHT22;18182;1.328;103.810;2022-11-15T14:22:59;29.50;99.90
31575;DHT22;18182;1.328;103.810;2022-11-15T14:25:27;29.50;99.90
31575;DHT22;18182;1.328;103.810;2022-11-15T14:28:12;29.50;99.90
31575;DHT22;18182;1.328;103.810;2022-11-15T14:30:40;29.40;99.90
31575;DHT22;18182;1.328;103.810;2022-11-15T14:33:18;29.40;99.90
31575;DHT22;18182;1.328;103.810;2022-11-15T14:35:44;29.40;99.90
31575;DHT22;18182;1.328;103.810;2022-11-15T14:38:11;29.40;99.90
31575;DHT22;18182;1.328;103.810;2022-11-15T14:40:37;29.40;99.90
31575;DHT22;18182;1.328;103.810;2022-11-15T14:43:03;29.40;99.90
31575;DHT22;18182;1.328;103.810;2022-11-15T14:45:29;29.40;99.90
31575;DHT22;18182;1.328;103.810;2022-11-15T14:47:56;29.30;99.90
31575;DHT22;18182;1.328;103.810;2022-11-15T14:50:22;29.40;99.90
31575;DHT22;18182;1.328;103.810;2022-11-15T14:52:48;29.30;99.90
31575;DHT22;18182;1.328;103.810;2022-11-15T14:55:24;29.40;99.90
31575;DHT22;18182;1.328;103.810;2022-11-15T14:57:51;29.40;99.90
31575;DHT22;18182;1.328;103.810;2022-11-15T15:00:18;29.30;99.90
31575;DHT22;18182;1.328;103.810;2022-11-15T15:02:45;29.40;99.90
31575;DHT22;18182;1.328;103.810;2022-11-15T15:05:21;29.30;99.90
31575;DHT22;18182;1.328;103.810;2022-11-15T15:07:49;29.30;99.90
31575;DHT22;18182;1.328;103.810;2022-11-15T15:10:16;29.30;99.90
31575;DHT22;18182;1.328;103.810;2022-11-15T15:12:42;29.20;99.90
31575;DHT22;18182;1.328;103.810;2022-11-15T15:15:12;29.20;99.90
31575;DHT22;18182;1.328;103.810;2022-11-15T15:17:39;29.20;99.90
31575;DHT22;18182;1.328;103.810;2022-11-15T15:20:06;29.10;99.90
31575;DHT22;18182;1.328;103.810;2022-11-15T15:22:32;29.10;99.90
31575;DHT22;18182;1.328;103.810;2022-11-15T15:24:58;29.10;99.90
31575;DHT22;18182;1.328;103.810;2022-11-15T15:27:24;29.20;99.90
31575;DHT22;18182;1.328;103.810;2022-11-15T15:29:50;29.20;99.90
31575;DHT22;18182;1.328;103.810;2022-11-15T15:32:17;29.20;99.90
31575;DHT22;18182;1.328;103.810;2022-11-15T15:34:43;29.10;99.90
31575;DHT22;18182;1.328;103.810;2022-11-15T15:39:41;29.10;99.90
31575;DHT22;18182;1.328;103.810;2022-11-15T15:42:07;29.10;99.90
31575;DHT22;18182;1.328;103.810;2022-11-15T15:44:33;29.10;99.90
31575;DHT22;18182;1.328;103.810;2022-11-15T15:46:59;29.10;99.90
31575;DHT22;18182;1.328;103.810;2022-11-15T15:49:25;29.10;99.90
31575;DHT22;18182;1.328;103.810;2022-11-15T15:51:51;29.10;99.90
31575;DHT22;18182;1.328;103.810;2022-11-15T15:54:17;29.00;99.90
31575;DHT22;18182;1.328;103.810;2022-11-15T15:56:43;29.00;99.90
31575;DHT22;18182;1.328;103.810;2022-11-15T15:59:10;29.10;99.90
31575;DHT22;18182;1.328;103.810;2022-11-15T16:01:36;29.10;99.90
31575;DHT22;18182;1.328;103.810;2022-11-15T16:04:02;29.10;99.90
31575;DHT22;18182;1.328;103.810;2022-11-15T16:09:01;29.10;99.90
31575;DHT22;18182;1.328;103.810;2022-11-15T16:11:27;29.10;99.90
31575;DHT22;18182;1.328;103.810;2022-11-15T16:13:53;29.00;99.90
31575;DHT22;18182;1.328;103.810;2022-11-15T16:16:19;29.10;99.90
31575;DHT22;18182;1.328;103.810;2022-11-15T16:18:47;29.00;99.90
31575;DHT22;18182;1.328;103.810;2022-11-15T16:21:13;29.00;99.90
31575;DHT22;18182;1.328;103.810;2022-11-15T16:23:39;29.00;99.90
31575;DHT22;18182;1.328;103.810;2022-11-15T16:29:01;29.00;99.90
31575;DHT22;18182;1.328;103.810;2022-11-15T16:31:27;29.00;99.90
31575;DHT22;18182;1.328;103.810;2022-11-15T16:33:53;29.10;99.90
31575;DHT22;18182;1.328;103.810;2022-11-15T16:36:25;29.00;99.90
31575;DHT22;18182;1.328;103.810;2022-11-15T16:38:52;29.00;99.90
31575;DHT22;18182;1.328;103.810;2022-11-15T16:41:18;29.00;99.90
31575;DHT22;18182;1.328;103.810;2022-11-15T16:43:45;29.00;99.90
31575;DHT22;18182;1.328;103.810;2022-11-15T16:46:16;29.00;99.90
31575;DHT22;18182;1.328;103.810;2022-11-15T16:48:42;29.00;99.90
31575;DHT22;18182;1.328;103.810;2022-11-15T16:51:08;29.00;99.90
31575;DHT22;18182;1.328;103.810;2022-11-15T16:53:35;29.00;99.90
31575;DHT22;18182;1.328;103.810;2022-11-15T16:56:02;28.90;99.90
31575;DHT22;18182;1.328;103.810;2022-11-15T16:58:28;28.90;99.90
31575;DHT22;18182;1.328;103.810;2022-11-15T17:00:55;29.00;99.90
31575;DHT22;18182;1.328;103.810;2022-11-15T17:03:22;29.00;99.90
31575;DHT22;18182;1.328;103.810;2022-11-15T17:05:48;29.00;99.90
31575;DHT22;18182;1.328;103.810;2022-11-15T17:08:15;29.00;99.90
31575;DHT22;18182;1.328;103.810;2022-11-15T17:10:41;29.00;99.90
31575;DHT22;18182;1.328;103.810;2022-11-15T17:13:11;29.00;99.90
31575;DHT22;18182;1.328;103.810;2022-11-15T17:15:37;29.00;99.90
31575;DHT22;18182;1.328;103.810;2022-11-15T17:18:04;29.00;99.90
31575;DHT22;18182;1.328;103.810;2022-11-15T17:20:31;28.90;99.90
31575;DHT22;18182;1.328;103.810;2022-11-15T17:22:57;28.90;99.90
31575;DHT22;18182;1.328;103.810;2022-11-15T17:25:23;28.90;99.90